»·PEaware :: AAL1018 KDFW-KRSW

AAL1018 :: KDFW-KRSW

FLIGHT INFORMATION

Flight Status: Arrived
Operator:
American Airlines
More flights by this operator :: More flights under this callsign
Pilot: Anonymous 13363 (13363)
Aircraft: BOEING 737-800
(B738)
More flights by this aircraft type
Origin: KDFW Dallas-Ft Worth Intl
United States
Destination: KRSW Southwest Florida Intl
United States
More flights between these airports :: More routes between these airports
Route: MRSSH2 ZALEA SWB HRV Q105 BLVNS Q102 BAGGS TYNEE1
File this flight plan on PilotEdge
Remarks:
Altitude:
(Current/Filed)
35,000ft
Speed:
(Current/Filed)
460kts
Departed: 15-Jan-17 11:52 PM
Arrived: 16-Jan-17 01:32 AM
Distance/Time
Traveled:
882nm/1:40
Distance/Time
To Go:
Arrived

Flight Plot

Page will automatically refresh every two minutes.

Flight plan parsing failed; only flown route is shown


Map Options




Map Legend


Flown Route
Filed Route
Departure Airport
Arrival Airport
Navaid (VOR, NDB)
Fix

Horizontal Profiles

Position Reports

Time Latitude Longitude Heading Altitude Ground
Speed
15-Jan-17 23:51 27.486297 -84.742819 102 35269ft 519kts
15-Jan-17 23:52 27.457653 -84.583315 102 35270ft 518kts
15-Jan-17 23:53 27.428902 -84.424506 102 35272ft 518kts
15-Jan-17 23:54 27.400419 -84.265682 101 35276ft 518kts
15-Jan-17 23:55 27.371647 -84.107138 102 35278ft 517kts
15-Jan-17 23:56 27.347207 -83.973667 102 35279ft 517kts
15-Jan-17 23:57 27.347207 -83.973667 102 35279ft 517kts
15-Jan-17 23:58 27.347207 -83.973667 102 35279ft 517kts
15-Jan-17 23:59 27.347207 -83.973667 102 35279ft 517kts
16-Jan-17 00:00 27.347207 -83.973667 102 35279ft 517kts
16-Jan-17 00:01 27.347207 -83.973667 102 35279ft 517kts
16-Jan-17 00:02 27.347207 -83.973667 102 35279ft 517kts
16-Jan-17 00:03 27.347207 -83.973667 102 35279ft 517kts
16-Jan-17 00:04 27.347207 -83.973667 102 35279ft 517kts
16-Jan-17 00:05 27.347207 -83.973667 102 35279ft 517kts
16-Jan-17 00:06 27.347207 -83.973667 102 35279ft 517kts
16-Jan-17 00:07 27.347207 -83.973667 102 35279ft 517kts
16-Jan-17 00:08 27.347207 -83.973667 102 35279ft 517kts
16-Jan-17 00:09 27.347207 -83.973667 102 35279ft 517kts
16-Jan-17 00:10 27.347207 -83.973667 102 35279ft 517kts
16-Jan-17 00:11 27.347207 -83.973667 102 35279ft 517kts
16-Jan-17 00:12 27.347207 -83.973667 102 35279ft 517kts
16-Jan-17 00:13 27.347207 -83.973667 102 35279ft 517kts
16-Jan-17 00:14 27.347207 -83.973667 102 35279ft 517kts
16-Jan-17 00:15 27.347207 -83.973667 102 35279ft 517kts
16-Jan-17 00:16 27.347207 -83.973667 102 35279ft 517kts
16-Jan-17 00:17 27.347207 -83.973667 102 35279ft 517kts
16-Jan-17 00:18 27.347207 -83.973667 102 35279ft 517kts
16-Jan-17 00:19 27.347207 -83.973667 102 35279ft 517kts
16-Jan-17 00:20 27.347207 -83.973667 102 35279ft 517kts
16-Jan-17 00:21 27.347207 -83.973667 102 35279ft 517kts
16-Jan-17 00:22 27.347207 -83.973667 102 35279ft 517kts
16-Jan-17 00:23 27.347207 -83.973667 102 35279ft 517kts
16-Jan-17 00:24 27.347207 -83.973667 102 35279ft 517kts
16-Jan-17 00:25 27.347207 -83.973667 102 35279ft 517kts
16-Jan-17 00:26 27.347207 -83.973667 102 35279ft 517kts
16-Jan-17 00:27 27.347207 -83.973667 102 35279ft 517kts
16-Jan-17 00:28 27.347207 -83.973667 102 35279ft 517kts
16-Jan-17 00:29 27.347207 -83.973667 102 35279ft 517kts
16-Jan-17 00:30 27.347207 -83.973667 102 35279ft 517kts
16-Jan-17 00:31 27.347207 -83.973667 102 35279ft 517kts
16-Jan-17 00:32 27.347207 -83.973667 102 35279ft 517kts
16-Jan-17 00:33 27.347207 -83.973667 102 35279ft 517kts
16-Jan-17 00:34 27.347207 -83.973667 102 35279ft 517kts
16-Jan-17 00:35 27.347207 -83.973667 102 35279ft 517kts
16-Jan-17 00:36 27.347207 -83.973667 102 35279ft 517kts
16-Jan-17 00:37 27.347207 -83.973667 102 35279ft 517kts
16-Jan-17 00:38 27.347207 -83.973667 102 35279ft 517kts
16-Jan-17 00:39 27.347207 -83.973667 102 35279ft 517kts
16-Jan-17 00:40 27.347207 -83.973667 102 35279ft 517kts
16-Jan-17 00:41 27.347207 -83.973667 102 35279ft 517kts
16-Jan-17 00:42 27.347207 -83.973667 102 35279ft 517kts
16-Jan-17 00:43 27.347207 -83.973667 102 35279ft 517kts
16-Jan-17 00:44 27.347207 -83.973667 102 35279ft 517kts
16-Jan-17 00:45 27.347207 -83.973667 102 35279ft 517kts
16-Jan-17 00:46 27.347207 -83.973667 102 35279ft 517kts
16-Jan-17 00:47 27.347207 -83.973667 102 35279ft 517kts
16-Jan-17 00:48 27.347207 -83.973667 102 35279ft 517kts
16-Jan-17 00:49 27.347207 -83.973667 102 35279ft 517kts
16-Jan-17 00:50 27.347207 -83.973667 102 35279ft 517kts
16-Jan-17 00:51 27.347207 -83.973667 102 35279ft 517kts
16-Jan-17 00:52 27.347207 -83.973667 102 35279ft 517kts
16-Jan-17 00:53 27.347207 -83.973667 102 35279ft 517kts
16-Jan-17 00:54 27.347207 -83.973667 102 35279ft 517kts
16-Jan-17 00:55 27.347207 -83.973667 102 35279ft 517kts
16-Jan-17 00:56 27.347207 -83.973667 102 35279ft 517kts
16-Jan-17 00:57 27.347207 -83.973667 102 35279ft 517kts
16-Jan-17 00:58 27.347207 -83.973667 102 35279ft 517kts
16-Jan-17 00:59 27.347207 -83.973667 102 35279ft 517kts
16-Jan-17 01:00 27.347207 -83.973667 102 35279ft 517kts
16-Jan-17 01:01 27.338130 -83.924282 101 35277ft 518kts
16-Jan-17 01:02 27.308789 -83.765355 101 35081ft 518kts
16-Jan-17 01:03 27.279473 -83.607647 102 32171ft 516kts
16-Jan-17 01:04 27.250000 -83.450217 102 28969ft 515kts
16-Jan-17 01:05 27.220502 -83.293486 102 25564ft 510kts
16-Jan-17 01:06 27.191913 -83.141758 102 22885ft 485kts
16-Jan-17 01:07 27.164239 -82.996707 103 20264ft 463kts
16-Jan-17 01:08 27.135763 -82.859468 110 17868ft 441kts
16-Jan-17 01:09 27.076526 -82.743925 125 15728ft 416kts
16-Jan-17 01:10 27.012744 -82.639367 125 13671ft 398kts
16-Jan-17 01:11 26.953846 -82.541817 124 12997ft 353kts
16-Jan-17 01:12 26.901902 -82.455922 125 12759ft 313kts
16-Jan-17 01:13 26.855507 -82.379563 125 12480ft 284kts
16-Jan-17 01:14 26.811435 -82.307150 124 11654ft 279kts
16-Jan-17 01:15 26.754872 -82.249779 144 10860ft 274kts
16-Jan-17 01:16 26.692853 -82.201248 144 10079ft 269kts
16-Jan-17 01:17 26.632090 -82.153370 143 9012ft 263kts
16-Jan-17 01:18 26.600735 -82.128693 143 8536ft 256kts
16-Jan-17 01:19 26.546783 -82.086271 143 8072ft 224kts
16-Jan-17 01:20 26.496406 -82.046686 143 7041ft 219kts
16-Jan-17 01:21 26.448334 -82.008436 133 6245ft 200kts
16-Jan-17 01:22 26.429367 -81.950956 103 5068ft 197kts
16-Jan-17 01:23 26.418413 -81.892091 101 3949ft 191kts
16-Jan-17 01:24 26.407803 -81.834780 101 3273ft 190kts
16-Jan-17 01:25 26.374005 -81.801616 208 2953ft 220kts
16-Jan-17 01:26 26.372440 -81.869213 285 3039ft 238kts
16-Jan-17 01:27 26.411409 -81.919409 357 2918ft 196kts
16-Jan-17 01:28 26.448839 -81.890574 61 2691ft 169kts
16-Jan-17 01:29 26.474230 -81.850265 56 1755ft 146kts
16-Jan-17 01:30 26.497748 -81.814143 54 999ft 147kts
16-Jan-17 01:31 26.522218 -81.776480 54 172ft 140kts
16-Jan-17 01:32 26.536312 -81.754861 48 38ft 4kts
16-Jan-17 01:33 26.540379 -81.754780 21 38ft 7kts
16-Jan-17 01:34 26.541446 -81.754454 10 38ft 0kts
16-Jan-17 01:35 26.541483 -81.754445 11 38ft 0kts
16-Jan-17 01:36 26.541483 -81.754445 11 38ft 0kts
16-Jan-17 01:37 26.541483 -81.754445 11 38ft 0kts
16-Jan-17 01:38 26.541483 -81.754445 11 38ft 0kts
16-Jan-17 01:39 26.541483 -81.754445 11 38ft 0kts
16-Jan-17 01:40 26.541483 -81.754445 11 38ft 0kts
16-Jan-17 01:41 26.541483 -81.754445 11 38ft 0kts
16-Jan-17 01:42 26.541483 -81.754445 11 38ft 0kts

Navigation Log

Ident Type
Flight plan parsing failed, navigation log unavailable